Time;durP1;ratioP1;P1;durP2;ratioP2;P2;SDS_P1;SDS_P2;PMS_P1;PMS_P2;Temp;Humidity;BMP_temperature;BMP_pressure;BME280_temperature;BME280_humidity;BME280_pressure;Samples;Min_cycle;Max_cycle;Signal;HPM_P1;HPM_P2
2023/05/15 00:01:50;;;;;;;;;;;11.60;99.90;;;;;;5043567;28;19960;-65
2023/05/15 00:04:16;;;;;;;;;;;11.60;99.90;;;;;;5051583;28;19978;-68
2023/05/15 00:06:41;;;;;;;;;;;11.70;99.90;;;;;;5045941;28;19928;-67
2023/05/15 00:09:07;;;;;;;;;;;11.70;99.90;;;;;;5042094;28;19921;-67
2023/05/15 00:11:33;;;;;;;;;;;11.60;99.90;;;;;;5043885;28;19935;-66
2023/05/15 00:13:58;;;;;;;;;;;11.70;99.90;;;;;;5052305;28;19928;-68
2023/05/15 00:16:24;;;;;;;;;;;11.70;99.90;;;;;;5041121;28;19925;-67
2023/05/15 00:18:49;;;;;;;;;;;11.70;99.90;;;;;;5040091;28;19927;-66
2023/05/15 00:21:15;;;;;;;;;;;11.70;99.90;;;;;;5046107;28;20268;-68
2023/05/15 00:23:41;;;;;;;;;;;11.60;99.90;;;;;;5040922;28;19925;-67
2023/05/15 00:26:06;;;;;;;;;;;11.60;99.90;;;;;;5040925;28;19929;-67
2023/05/15 00:28:32;;;;;;;;;;;11.60;99.90;;;;;;5042517;28;20295;-67
2023/05/15 00:30:57;;;;;;;;;;;11.60;99.90;;;;;;5052373;28;19921;-67
2023/05/15 00:33:23;;;;;;;;;;;11.60;99.90;;;;;;5042699;28;20449;-68
2023/05/15 00:35:48;;;;;;;;;;;11.50;99.90;;;;;;5033047;28;20016;-68
2023/05/15 00:38:14;;;;;;;;;;;11.50;99.90;;;;;;5050326;28;20268;-67
2023/05/15 00:40:40;;;;;;;;;;;11.50;99.90;;;;;;5045519;28;19936;-68
2023/05/15 00:43:06;;;;;;;;;;;11.50;99.90;;;;;;5037858;28;20375;-67
2023/05/15 00:45:32;;;;;;;;;;;11.50;99.90;;;;;;5027411;28;19921;-68
2023/05/15 00:47:59;;;;;;;;;;;11.50;99.90;;;;;;5031880;28;19921;-67
2023/05/15 00:50:25;;;;;;;;;;;11.50;99.90;;;;;;5029967;28;19932;-66
2023/05/15 00:52:51;;;;;;;;;;;11.40;99.90;;;;;;5040206;28;19925;-67
2023/05/15 00:55:16;;;;;;;;;;;11.40;99.90;;;;;;5045696;28;19924;-67
2023/05/15 00:57:42;;;;;;;;;;;11.50;99.90;;;;;;5038038;28;19993;-67
2023/05/15 01:00:09;;;;;;;;;;;11.40;99.90;;;;;;5042828;28;19921;-67
2023/05/15 01:02:35;;;;;;;;;;;11.40;99.90;;;;;;5047757;28;20398;-66
2023/05/15 01:05:01;;;;;;;;;;;11.40;99.90;;;;;;5046723;28;19921;-66
2023/05/15 01:07:29;;;;;;;;;;;11.40;99.90;;;;;;5050918;28;19927;-66
2023/05/15 01:09:55;;;;;;;;;;;11.40;99.90;;;;;;5041892;28;19928;-66
2023/05/15 01:12:22;;;;;;;;;;;11.30;99.90;;;;;;5043181;28;19928;-66
2023/05/15 01:14:48;;;;;;;;;;;11.40;99.90;;;;;;5034933;28;19921;-66
2023/05/15 01:17:14;;;;;;;;;;;11.30;99.90;;;;;;5031271;28;20402;-65
2023/05/15 01:19:40;;;;;;;;;;;11.30;99.90;;;;;;5039240;28;19931;-65
2023/05/15 01:22:15;;;;;;;;;;;11.30;99.90;;;;;;5038277;28;20347;-66
2023/05/15 01:24:49;;;;;;;;;;;11.30;99.90;;;;;;5030571;28;19925;-64
2023/05/15 01:27:19;;;;;;;;;;;11.30;99.90;;;;;;5034303;28;19978;-67
2023/05/15 01:29:57;;;;;;;;;;;11.30;99.90;;;;;;5036277;28;19925;-67
2023/05/15 01:32:28;;;;;;;;;;;11.30;99.90;;;;;;5034252;28;19931;-68
2023/05/15 01:35:00;;;;;;;;;;;11.20;99.90;;;;;;5045822;23;19971;-65
2023/05/15 01:37:27;;;;;;;;;;;11.20;99.90;;;;;;5039829;28;19970;-66
2023/05/15 01:39:56;;;;;;;;;;;11.20;99.90;;;;;;5040156;28;19925;-67
2023/05/15 01:42:24;;;;;;;;;;;11.20;99.90;;;;;;5042837;28;19990;-67
2023/05/15 01:44:53;;;;;;;;;;;11.10;99.90;;;;;;5051567;28;20391;-67
2023/05/15 01:47:20;;;;;;;;;;;11.10;99.90;;;;;;5046474;28;19979;-67
2023/05/15 01:49:48;;;;;;;;;;;11.00;99.90;;;;;;5049885;28;20573;-67
2023/05/15 01:52:17;;;;;;;;;;;11.00;99.90;;;;;;5051684;28;20003;-67
2023/05/15 01:54:43;;;;;;;;;;;11.00;99.90;;;;;;5050375;28;20015;-67
2023/05/15 01:57:09;;;;;;;;;;;10.90;99.90;;;;;;5043076;28;20448;-68
2023/05/15 01:59:35;;;;;;;;;;;10.90;99.90;;;;;;5050340;28;19921;-66
2023/05/15 02:02:03;;;;;;;;;;;10.90;99.90;;;;;;5054962;28;20333;-66
2023/05/15 02:04:29;;;;;;;;;;;10.80;99.90;;;;;;5051350;28;19921;-66
2023/05/15 02:06:55;;;;;;;;;;;10.80;99.90;;;;;;5054257;28;19921;-66
2023/05/15 02:09:22;;;;;;;;;;;10.80;99.90;;;;;;5054463;28;19921;-65
2023/05/15 02:11:47;;;;;;;;;;;10.80;99.90;;;;;;5044981;28;20516;-67
2023/05/15 02:14:13;;;;;;;;;;;10.80;99.90;;;;;;5033419;28;19955;-69
2023/05/15 02:16:39;;;;;;;;;;;10.80;99.90;;;;;;5046555;28;19921;-65
2023/05/15 02:19:04;;;;;;;;;;;10.80;99.90;;;;;;5054675;28;20011;-65
2023/05/15 02:21:30;;;;;;;;;;;10.70;99.90;;;;;;5038790;28;19973;-65
2023/05/15 02:23:55;;;;;;;;;;;10.70;99.90;;;;;;5044239;28;19959;-68
2023/05/15 02:26:25;;;;;;;;;;;10.70;99.90;;;;;;5045558;28;19921;-65
2023/05/15 02:28:57;;;;;;;;;;;10.60;99.90;;;;;;5044695;28;20042;-69
2023/05/15 02:31:26;;;;;;;;;;;10.60;99.90;;;;;;5034051;28;19921;-66
2023/05/15 02:33:52;;;;;;;;;;;10.60;99.90;;;;;;5052605;28;19924;-66
2023/05/15 02:36:27;;;;;;;;;;;10.50;99.90;;;;;;5050258;28;19932;-65
2023/05/15 02:38:53;;;;;;;;;;;10.60;99.90;;;;;;5047306;28;20429;-66
2023/05/15 02:41:18;;;;;;;;;;;10.60;99.90;;;;;;5053835;28;19920;-66
2023/05/15 02:43:45;;;;;;;;;;;10.60;99.90;;;;;;5054265;28;19973;-65
2023/05/15 02:46:11;;;;;;;;;;;10.60;99.90;;;;;;5042056;28;19932;-66
2023/05/15 02:48:38;;;;;;;;;;;10.50;99.90;;;;;;5043769;28;19931;-66
2023/05/15 02:51:05;;;;;;;;;;;10.50;99.90;;;;;;5050624;28;20318;-65
2023/05/15 02:53:31;;;;;;;;;;;10.60;99.90;;;;;;5050272;28;19924;-65
2023/05/15 02:55:57;;;;;;;;;;;10.50;99.90;;;;;;5037475;28;19929;-66
2023/05/15 02:58:22;;;;;;;;;;;10.50;99.90;;;;;;5053726;28;19928;-65
2023/05/15 03:00:48;;;;;;;;;;;10.60;99.90;;;;;;5053942;28;19921;-66
2023/05/15 03:03:13;;;;;;;;;;;10.60;99.90;;;;;;5041783;28;20319;-66
2023/05/15 03:05:39;;;;;;;;;;;10.60;99.90;;;;;;5050096;28;19920;-65
2023/05/15 03:08:04;;;;;;;;;;;10.60;99.90;;;;;;5053752;28;19921;-65
2023/05/15 03:10:30;;;;;;;;;;;10.60;99.90;;;;;;5045307;28;19927;-66
2023/05/15 03:12:57;;;;;;;;;;;10.50;99.90;;;;;;5052772;28;19928;-66
2023/05/15 03:15:22;;;;;;;;;;;10.50;99.90;;;;;;5050050;28;19925;-65
2023/05/15 03:17:48;;;;;;;;;;;10.40;99.90;;;;;;5040852;28;19921;-65
2023/05/15 03:20:13;;;;;;;;;;;10.40;99.90;;;;;;5027184;28;19928;-66
2023/05/15 03:22:39;;;;;;;;;;;10.30;99.90;;;;;;5043366;28;20404;-65
2023/05/15 03:25:07;;;;;;;;;;;10.30;99.90;;;;;;5044122;28;19991;-66
2023/05/15 03:27:32;;;;;;;;;;;10.30;99.90;;;;;;5032241;28;19925;-65
2023/05/15 03:29:58;;;;;;;;;;;10.30;99.90;;;;;;5042365;28;19990;-66
2023/05/15 03:32:23;;;;;;;;;;;10.30;99.90;;;;;;5039830;28;20025;-65
2023/05/15 03:34:48;;;;;;;;;;;10.30;99.90;;;;;;5043143;28;19984;-65
2023/05/15 03:37:14;;;;;;;;;;;10.30;99.90;;;;;;5049388;28;19947;-70
2023/05/15 03:39:39;;;;;;;;;;;10.30;99.90;;;;;;5036348;28;19925;-66
2023/05/15 03:42:05;;;;;;;;;;;10.30;99.90;;;;;;5050716;28;20014;-65
2023/05/15 03:44:32;;;;;;;;;;;10.20;99.90;;;;;;5040710;28;19921;-67
2023/05/15 03:46:57;;;;;;;;;;;10.20;99.90;;;;;;5052417;28;19929;-67
2023/05/15 03:49:23;;;;;;;;;;;10.20;99.90;;;;;;5050775;28;19921;-65
2023/05/15 03:51:48;;;;;;;;;;;10.10;99.90;;;;;;5046955;28;19972;-66
2023/05/15 03:54:14;;;;;;;;;;;10.20;99.90;;;;;;5036727;28;20015;-65
2023/05/15 03:56:39;;;;;;;;;;;10.20;99.90;;;;;;5050477;28;19925;-66
2023/05/15 03:59:04;;;;;;;;;;;10.20;99.90;;;;;;5051852;28;19967;-66
2023/05/15 04:01:30;;;;;;;;;;;10.20;99.90;;;;;;5038364;28;20290;-66
2023/05/15 04:03:55;;;;;;;;;;;10.20;99.90;;;;;;5051321;28;19921;-66
2023/05/15 04:06:21;;;;;;;;;;;10.20;99.90;;;;;;5052815;28;19924;-66
2023/05/15 04:08:47;;;;;;;;;;;10.10;99.90;;;;;;5041432;28;19995;-66
2023/05/15 04:11:13;;;;;;;;;;;10.10;99.90;;;;;;5039584;28;19974;-66
2023/05/15 04:13:38;;;;;;;;;;;10.20;99.90;;;;;;5052019;28;19936;-65
2023/05/15 04:16:04;;;;;;;;;;;10.10;99.90;;;;;;5049005;28;19983;-65
2023/05/15 04:18:29;;;;;;;;;;;10.10;99.90;;;;;;5039533;28;19925;-65
2023/05/15 04:20:55;;;;;;;;;;;10.10;99.90;;;;;;5049583;28;19979;-65
2023/05/15 04:23:20;;;;;;;;;;;10.10;99.90;;;;;;5052077;28;19975;-65
2023/05/15 04:25:47;;;;;;;;;;;10.10;99.90;;;;;;5035203;28;19961;-69
2023/05/15 04:28:14;;;;;;;;;;;10.10;99.90;;;;;;5047582;28;20375;-65
2023/05/15 04:30:40;;;;;;;;;;;10.00;99.90;;;;;;5048794;28;19921;-65
2023/05/15 04:33:06;;;;;;;;;;;10.10;99.90;;;;;;5045602;28;19989;-67
2023/05/15 04:35:31;;;;;;;;;;;10.10;99.90;;;;;;5032861;28;19932;-65
2023/05/15 04:37:57;;;;;;;;;;;10.10;99.90;;;;;;5050362;28;20387;-65
2023/05/15 04:40:22;;;;;;;;;;;10.10;99.90;;;;;;5052202;28;19974;-65
2023/05/15 04:42:48;;;;;;;;;;;10.10;99.90;;;;;;5048274;28;19921;-67
2023/05/15 04:45:13;;;;;;;;;;;10.20;99.90;;;;;;5031165;28;19965;-65
2023/05/15 04:47:39;;;;;;;;;;;10.20;99.90;;;;;;5048317;28;19972;-65
2023/05/15 04:50:05;;;;;;;;;;;10.10;99.90;;;;;;5046253;28;19921;-66
2023/05/15 04:52:31;;;;;;;;;;;10.10;99.90;;;;;;5046868;28;19920;-66
2023/05/15 04:54:57;;;;;;;;;;;10.20;99.90;;;;;;5051578;28;20367;-66
2023/05/15 04:57:23;;;;;;;;;;;10.10;99.90;;;;;;5046032;28;19928;-65
2023/05/15 04:59:48;;;;;;;;;;;10.20;99.90;;;;;;5043276;28;20411;-65
2023/05/15 05:02:14;;;;;;;;;;;10.20;99.90;;;;;;5046727;28;20037;-65
2023/05/15 05:04:41;;;;;;;;;;;10.20;99.90;;;;;;5040689;28;20295;-65
2023/05/15 05:07:07;;;;;;;;;;;10.20;99.90;;;;;;5042535;28;19925;-66
2023/05/15 05:09:33;;;;;;;;;;;10.20;99.90;;;;;;5042469;28;19927;-65
2023/05/15 05:11:59;;;;;;;;;;;10.10;99.90;;;;;;5039016;28;19924;-68
2023/05/15 05:14:25;;;;;;;;;;;10.10;99.90;;;;;;5035623;28;19987;-66
2023/05/15 05:16:50;;;;;;;;;;;10.20;99.90;;;;;;5032903;28;20016;-65
2023/05/15 05:19:16;;;;;;;;;;;10.10;99.90;;;;;;5039761;28;20138;-64
2023/05/15 05:21:41;;;;;;;;;;;10.10;99.90;;;;;;5041316;28;19925;-66
2023/05/15 05:24:07;;;;;;;;;;;10.00;99.90;;;;;;5025895;28;19932;-67
2023/05/15 05:26:32;;;;;;;;;;;10.00;99.90;;;;;;5036325;28;19924;-67
2023/05/15 05:28:58;;;;;;;;;;;10.10;99.90;;;;;;5041290;28;19929;-68
2023/05/15 05:31:23;;;;;;;;;;;10.00;99.90;;;;;;5041979;28;20275;-65
2023/05/15 05:33:50;;;;;;;;;;;10.10;99.90;;;;;;5034129;28;19936;-67
2023/05/15 05:36:15;;;;;;;;;;;10.00;99.90;;;;;;5045979;28;19921;-63
2023/05/15 05:38:41;;;;;;;;;;;10.00;99.90;;;;;;5055015;28;19928;-66
2023/05/15 05:41:06;;;;;;;;;;;10.00;99.90;;;;;;5045318;28;19977;-67
2023/05/15 05:43:32;;;;;;;;;;;10.10;99.90;;;;;;5056139;28;19974;-65
2023/05/15 05:45:57;;;;;;;;;;;10.10;99.90;;;;;;5055740;28;20007;-67
2023/05/15 05:48:23;;;;;;;;;;;10.20;99.90;;;;;;5056074;28;19921;-66
2023/05/15 05:50:48;;;;;;;;;;;10.20;99.90;;;;;;5051309;28;20394;-64
2023/05/15 05:53:15;;;;;;;;;;;10.20;99.90;;;;;;5046042;28;19924;-66
2023/05/15 05:55:40;;;;;;;;;;;10.20;99.90;;;;;;5037862;28;20011;-66
2023/05/15 05:58:06;;;;;;;;;;;10.20;99.90;;;;;;5036732;28;20838;-66
2023/05/15 06:00:31;;;;;;;;;;;10.20;99.90;;;;;;5035674;28;19925;-66
2023/05/15 06:02:57;;;;;;;;;;;10.20;99.90;;;;;;5042981;28;19925;-67
2023/05/15 06:05:26;;;;;;;;;;;10.20;99.90;;;;;;5034183;28;19928;-66
2023/05/15 06:07:52;;;;;;;;;;;10.30;99.90;;;;;;5038548;28;19925;-65
2023/05/15 06:10:18;;;;;;;;;;;10.30;99.90;;;;;;5041122;28;19956;-66
2023/05/15 06:12:44;;;;;;;;;;;10.20;99.90;;;;;;5047702;28;19921;-64
2023/05/15 06:15:09;;;;;;;;;;;10.20;99.90;;;;;;5045404;28;19925;-67
2023/05/15 06:17:35;;;;;;;;;;;10.30;99.90;;;;;;5046952;28;19978;-66
2023/05/15 06:20:00;;;;;;;;;;;10.40;99.90;;;;;;5054043;28;19966;-67
2023/05/15 06:22:26;;;;;;;;;;;10.40;99.90;;;;;;5054455;28;19974;-67
2023/05/15 06:24:51;;;;;;;;;;;10.50;99.90;;;;;;5042011;28;20290;-67
2023/05/15 06:27:17;;;;;;;;;;;10.50;99.90;;;;;;5048977;28;19928;-67
2023/05/15 06:29:42;;;;;;;;;;;10.60;99.90;;;;;;5051015;28;19921;-67
2023/05/15 06:32:08;;;;;;;;;;;10.60;99.90;;;;;;5041949;28;19929;-66
2023/05/15 06:34:33;;;;;;;;;;;10.70;99.90;;;;;;5048862;28;19925;-65
2023/05/15 06:36:59;;;;;;;;;;;10.80;99.90;;;;;;5054564;28;19929;-67
2023/05/15 06:39:25;;;;;;;;;;;10.90;99.90;;;;;;5049758;28;19925;-67
2023/05/15 06:41:56;;;;;;;;;;;10.90;99.90;;;;;;5052794;28;19921;-67
2023/05/15 06:44:22;;;;;;;;;;;11.00;99.90;;;;;;5054148;28;20387;-66
2023/05/15 06:46:47;;;;;;;;;;;11.10;99.90;;;;;;5041501;28;19956;-67
2023/05/15 06:49:13;;;;;;;;;;;11.20;99.90;;;;;;5047626;28;20448;-66
2023/05/15 06:51:38;;;;;;;;;;;11.30;99.90;;;;;;5045163;28;20020;-63
2023/05/15 06:54:04;;;;;;;;;;;11.40;99.90;;;;;;5047690;28;20364;-67
2023/05/15 06:56:29;;;;;;;;;;;11.40;99.90;;;;;;5041991;28;19963;-67
2023/05/15 06:58:55;;;;;;;;;;;11.40;99.90;;;;;;5053359;28;19921;-67
2023/05/15 07:01:20;;;;;;;;;;;11.40;99.90;;;;;;5047167;28;19921;-67
2023/05/15 07:03:46;;;;;;;;;;;11.40;99.90;;;;;;5038501;28;20379;-67
2023/05/15 07:06:11;;;;;;;;;;;11.40;99.90;;;;;;5043737;28;19924;-67
2023/05/15 07:08:37;;;;;;;;;;;11.50;99.90;;;;;;5037940;28;19920;-65
2023/05/15 07:11:03;;;;;;;;;;;11.60;99.90;;;;;;5044643;28;19983;-67
2023/05/15 07:13:28;;;;;;;;;;;11.60;99.90;;;;;;5040063;28;19936;-67
2023/05/15 07:15:53;;;;;;;;;;;11.70;99.90;;;;;;5038601;28;19929;-67
2023/05/15 07:18:19;;;;;;;;;;;11.80;99.90;;;;;;5035086;28;19975;-67
2023/05/15 07:20:45;;;;;;;;;;;11.90;99.90;;;;;;5041560;28;19928;-67
2023/05/15 07:23:10;;;;;;;;;;;12.00;99.90;;;;;;5041038;28;19920;-64
2023/05/15 07:25:36;;;;;;;;;;;12.00;99.90;;;;;;5039831;28;19959;-67
2023/05/15 07:28:01;;;;;;;;;;;12.10;99.90;;;;;;5035340;28;19921;-66
2023/05/15 07:30:27;;;;;;;;;;;12.20;99.90;;;;;;5037243;28;19960;-67
2023/05/15 07:32:52;;;;;;;;;;;12.20;99.90;;;;;;5040433;28;20371;-65
2023/05/15 07:35:18;;;;;;;;;;;12.30;99.90;;;;;;5091936;22;20326;-65
2023/05/15 07:37:45;;;;;;;;;;;12.50;99.90;;;;;;5057808;28;20374;-65
2023/05/15 07:40:10;;;;;;;;;;;12.60;99.90;;;;;;5060937;28;19921;-65
2023/05/15 07:42:36;;;;;;;;;;;12.70;99.90;;;;;;5056415;28;19921;-65
2023/05/15 07:45:02;;;;;;;;;;;12.70;99.90;;;;;;5058545;28;19925;-65
2023/05/15 07:47:27;;;;;;;;;;;12.80;99.90;;;;;;5038679;28;19932;-67
2023/05/15 07:49:53;;;;;;;;;;;12.90;99.90;;;;;;5032599;28;19925;-67
2023/05/15 07:52:18;;;;;;;;;;;12.90;99.90;;;;;;5033605;28;19976;-67
2023/05/15 07:54:43;;;;;;;;;;;12.90;99.90;;;;;;5027266;28;19936;-67
2023/05/15 07:57:09;;;;;;;;;;;13.00;99.90;;;;;;5048143;28;19928;-67
2023/05/15 07:59:35;;;;;;;;;;;13.20;99.90;;;;;;5046852;28;19920;-67
2023/05/15 08:02:00;;;;;;;;;;;13.30;99.90;;;;;;5046607;28;20306;-67
2023/05/15 08:04:26;;;;;;;;;;;13.40;99.90;;;;;;5040834;28;20023;-67
2023/05/15 08:06:52;;;;;;;;;;;13.50;99.90;;;;;;5050603;28;19931;-67
2023/05/15 08:09:17;;;;;;;;;;;13.50;99.90;;;;;;5053841;28;19920;-67
2023/05/15 08:11:43;;;;;;;;;;;13.60;99.90;;;;;;5032311;28;19929;-66
2023/05/15 08:14:08;;;;;;;;;;;13.70;99.90;;;;;;5042924;28;19920;-67
2023/05/15 08:16:34;;;;;;;;;;;13.80;99.90;;;;;;5050240;28;19921;-67
2023/05/15 08:19:03;;;;;;;;;;;13.80;99.90;;;;;;5055414;28;19924;-67
2023/05/15 08:21:29;;;;;;;;;;;13.90;99.90;;;;;;5036881;28;20332;-67
2023/05/15 08:23:55;;;;;;;;;;;14.00;99.90;;;;;;5028472;28;19921;-66
2023/05/15 08:26:20;;;;;;;;;;;14.10;99.90;;;;;;5030531;28;20311;-67
2023/05/15 08:28:46;;;;;;;;;;;14.20;99.90;;;;;;5037823;28;19921;-67
2023/05/15 08:31:12;;;;;;;;;;;14.20;99.90;;;;;;5036480;28;19932;-66
2023/05/15 08:33:37;;;;;;;;;;;14.30;99.90;;;;;;5034073;28;19929;-67
2023/05/15 08:36:03;;;;;;;;;;;14.50;99.90;;;;;;5030831;28;19964;-67
2023/05/15 08:38:28;;;;;;;;;;;14.60;99.90;;;;;;5029580;28;19928;-67
2023/05/15 08:40:56;;;;;;;;;;;14.70;99.90;;;;;;5031460;28;19921;-67
2023/05/15 08:43:22;;;;;;;;;;;14.70;99.90;;;;;;5035771;28;19925;-66
2023/05/15 08:45:48;;;;;;;;;;;14.80;99.90;;;;;;5030922;28;19924;-66
2023/05/15 08:48:15;;;;;;;;;;;14.80;99.90;;;;;;5031082;28;19925;-67
2023/05/15 08:50:42;;;;;;;;;;;14.80;99.90;;;;;;5032130;28;20007;-67
2023/05/15 08:53:08;;;;;;;;;;;14.90;99.90;;;;;;5044054;28;19929;-67
2023/05/15 08:55:33;;;;;;;;;;;15.00;99.90;;;;;;5037750;28;19921;-67
2023/05/15 08:57:59;;;;;;;;;;;15.00;99.90;;;;;;5051030;28;19982;-66
2023/05/15 09:00:25;;;;;;;;;;;15.10;99.90;;;;;;5046116;28;19921;-67
2023/05/15 09:02:52;;;;;;;;;;;15.20;99.90;;;;;;5036465;28;19931;-67
2023/05/15 09:05:17;;;;;;;;;;;15.30;99.90;;;;;;5033310;28;20388;-67
2023/05/15 09:07:44;;;;;;;;;;;15.40;99.90;;;;;;5033238;28;19937;-67
2023/05/15 09:10:10;;;;;;;;;;;15.50;99.90;;;;;;5030588;28;20008;-67
2023/05/15 09:12:39;;;;;;;;;;;15.60;99.90;;;;;;5048662;28;20021;-67
2023/05/15 09:15:09;;;;;;;;;;;15.60;99.90;;;;;;5042413;28;19983;-67
2023/05/15 09:17:35;;;;;;;;;;;15.70;99.90;;;;;;5037627;28;19921;-65
2023/05/15 09:20:01;;;;;;;;;;;15.70;99.90;;;;;;5031278;28;19921;-67
2023/05/15 09:22:27;;;;;;;;;;;15.90;99.90;;;;;;5055584;28;19921;-68
2023/05/15 09:24:54;;;;;;;;;;;15.90;99.90;;;;;;5071526;28;19969;-68
2023/05/15 09:27:19;;;;;;;;;;;15.90;99.90;;;;;;5050301;28;19928;-67
2023/05/15 09:29:45;;;;;;;;;;;16.10;99.90;;;;;;5032269;28;19921;-68
2023/05/15 09:32:12;;;;;;;;;;;16.10;99.90;;;;;;5031751;28;19925;-68
2023/05/15 09:34:38;;;;;;;;;;;16.10;99.90;;;;;;5027454;28;20290;-64
2023/05/15 09:37:05;;;;;;;;;;;16.20;99.90;;;;;;5028452;28;19921;-68
2023/05/15 09:39:31;;;;;;;;;;;16.30;99.90;;;;;;5037929;28;19921;-68
2023/05/15 09:42:06;;;;;;;;;;;16.40;99.90;;;;;;5030920;28;19921;-67
2023/05/15 09:44:33;;;;;;;;;;;16.50;99.90;;;;;;5031676;28;20012;-67
2023/05/15 09:46:58;;;;;;;;;;;16.60;99.90;;;;;;5040514;28;19921;-67
2023/05/15 09:49:24;;;;;;;;;;;16.60;99.90;;;;;;5036188;28;19928;-67
2023/05/15 09:51:50;;;;;;;;;;;16.60;99.90;;;;;;5034708;28;19932;-68
2023/05/15 09:54:16;;;;;;;;;;;16.80;99.90;;;;;;5029235;28;20387;-68
2023/05/15 09:56:43;;;;;;;;;;;16.80;99.90;;;;;;5033290;28;19975;-68
2023/05/15 09:59:11;;;;;;;;;;;17.00;99.90;;;;;;5039909;28;19928;-68
2023/05/15 10:01:37;;;;;;;;;;;17.10;99.90;;;;;;5047693;28;19955;-66
2023/05/15 10:04:03;;;;;;;;;;;17.10;99.90;;;;;;5035254;28;19960;-67
2023/05/15 10:06:36;;;;;;;;;;;17.20;99.90;;;;;;5042507;28;20469;-66
2023/05/15 10:09:02;;;;;;;;;;;17.30;99.90;;;;;;5042043;28;20367;-65
2023/05/15 10:11:29;;;;;;;;;;;17.30;99.90;;;;;;5040634;28;19929;-66
2023/05/15 10:13:55;;;;;;;;;;;17.40;99.90;;;;;;5051150;28;19921;-66
2023/05/15 10:16:21;;;;;;;;;;;17.60;99.90;;;;;;5045443;28;19925;-66
2023/05/15 10:18:47;;;;;;;;;;;17.80;99.90;;;;;;5045058;28;20028;-66
2023/05/15 10:21:15;;;;;;;;;;;17.90;99.90;;;;;;5063376;28;20404;-65
2023/05/15 10:23:41;;;;;;;;;;;17.80;99.90;;;;;;5038885;28;19921;-66
2023/05/15 10:26:12;;;;;;;;;;;17.80;99.90;;;;;;5039374;28;20429;-66
2023/05/15 10:28:38;;;;;;;;;;;17.90;99.90;;;;;;5031559;28;20371;-66
2023/05/15 10:31:04;;;;;;;;;;;18.00;99.90;;;;;;5034274;28;19921;-66
2023/05/15 10:33:30;;;;;;;;;;;18.00;99.90;;;;;;5034454;28;19925;-66
2023/05/15 10:35:57;;;;;;;;;;;17.90;99.90;;;;;;5029114;28;19921;-66
2023/05/15 10:38:23;;;;;;;;;;;17.80;99.90;;;;;;5040826;28;20008;-65
2023/05/15 10:40:50;;;;;;;;;;;17.70;99.90;;;;;;5042592;28;19920;-65
2023/05/15 10:43:17;;;;;;;;;;;17.60;99.90;;;;;;5040673;28;19929;-66
2023/05/15 10:45:43;;;;;;;;;;;17.70;99.90;;;;;;5043080;28;19979;-65
2023/05/15 10:48:11;;;;;;;;;;;18.10;99.90;;;;;;5067564;28;19955;-65
2023/05/15 10:50:36;;;;;;;;;;;18.40;99.90;;;;;;5033467;28;19967;-65
2023/05/15 10:53:02;;;;;;;;;;;18.70;99.90;;;;;;5033182;28;20011;-65
2023/05/15 10:55:29;;;;;;;;;;;18.80;99.90;;;;;;5034033;28;20371;-65
2023/05/15 10:57:54;;;;;;;;;;;19.00;99.90;;;;;;5033139;28;20008;-65
2023/05/15 11:00:27;;;;;;;;;;;19.20;99.90;;;;;;5037009;28;19990;-65
2023/05/15 11:02:55;;;;;;;;;;;19.30;99.90;;;;;;5033989;28;20292;-65
2023/05/15 11:05:21;;;;;;;;;;;19.30;99.90;;;;;;5033352;28;19967;-65
2023/05/15 11:08:05;;;;;;;;;;;19.10;99.90;;;;;;5035923;28;19959;-65
2023/05/15 11:10:34;;;;;;;;;;;18.90;99.90;;;;;;5033754;28;20145;-65
2023/05/15 11:13:00;;;;;;;;;;;19.00;99.90;;;;;;5031787;28;19979;-65
2023/05/15 11:15:26;;;;;;;;;;;19.10;99.90;;;;;;5034615;28;20361;-66
2023/05/15 11:18:04;;;;;;;;;;;19.10;99.90;;;;;;5032269;28;19925;-66
2023/05/15 11:20:36;;;;;;;;;;;19.10;99.90;;;;;;5026598;28;19975;-67
2023/05/15 11:23:01;;;;;;;;;;;19.20;99.90;;;;;;5042547;28;19927;-65
2023/05/15 11:25:29;;;;;;;;;;;19.10;99.90;;;;;;5041864;28;20012;-66
2023/05/15 11:27:55;;;;;;;;;;;18.90;99.90;;;;;;5033905;28;19940;-66
2023/05/15 11:30:21;;;;;;;;;;;18.90;99.90;;;;;;5031618;28;19925;-66
2023/05/15 11:32:48;;;;;;;;;;;18.90;99.90;;;;;;5044630;28;19929;-66
2023/05/15 11:35:16;;;;;;;;;;;19.00;99.90;;;;;;5064233;28;19936;-66
2023/05/15 11:37:44;;;;;;;;;;;19.10;99.90;;;;;;5043444;28;20019;-66
2023/05/15 11:40:13;;;;;;;;;;;19.20;99.90;;;;;;5041272;28;19921;-67
2023/05/15 11:42:39;;;;;;;;;;;19.30;99.90;;;;;;5039317;28;19925;-66
2023/05/15 11:45:06;;;;;;;;;;;19.40;99.90;;;;;;5049143;28;19967;-66
2023/05/15 11:47:31;;;;;;;;;;;19.40;99.90;;;;;;5037946;28;19937;-66
2023/05/15 11:49:58;;;;;;;;;;;19.50;99.90;;;;;;5032612;28;20449;-66
2023/05/15 11:52:23;;;;;;;;;;;19.40;99.90;;;;;;5032731;28;19929;-66
2023/05/15 11:54:49;;;;;;;;;;;19.30;99.90;;;;;;5032088;28;19927;-66
2023/05/15 11:57:15;;;;;;;;;;;19.50;99.90;;;;;;5037618;28;20011;-66
2023/05/15 11:59:40;;;;;;;;;;;19.80;99.90;;;;;;5031563;28;20008;-66
2023/05/15 12:02:06;;;;;;;;;;;19.90;99.90;;;;;;5034879;28;19921;-66
2023/05/15 12:04:32;;;;;;;;;;;19.80;99.70;;;;;;5036162;28;19921;-66
2023/05/15 12:07:00;;;;;;;;;;;20.10;99.60;;;;;;5032132;28;19929;-66
2023/05/15 12:09:27;;;;;;;;;;;20.00;98.40;;;;;;5031513;28;19925;-66
2023/05/15 12:11:54;;;;;;;;;;;19.70;98.90;;;;;;5031943;28;19928;-66
2023/05/15 12:14:26;;;;;;;;;;;19.70;99.00;;;;;;5033652;28;20395;-66
2023/05/15 12:16:52;;;;;;;;;;;20.00;99.70;;;;;;5039041;28;20160;-66
2023/05/15 12:19:17;;;;;;;;;;;19.90;99.90;;;;;;5031863;28;20407;-66
2023/05/15 12:21:46;;;;;;;;;;;19.80;99.90;;;;;;5030093;28;20462;-66
2023/05/15 12:24:12;;;;;;;;;;;19.70;99.90;;;;;;5032180;28;19921;-66
2023/05/15 12:26:38;;;;;;;;;;;19.60;99.10;;;;;;5036566;28;19928;-66
2023/05/15 12:29:04;;;;;;;;;;;19.40;99.90;;;;;;5031159;28;19932;-66
2023/05/15 12:31:30;;;;;;;;;;;19.60;99.90;;;;;;5036184;28;20044;-66
2023/05/15 12:33:56;;;;;;;;;;;20.00;99.70;;;;;;5030567;28;20008;-66
2023/05/15 12:36:21;;;;;;;;;;;20.10;98.60;;;;;;5028665;28;19928;-66
2023/05/15 12:38:47;;;;;;;;;;;19.90;99.50;;;;;;5030606;28;19928;-66
2023/05/15 12:41:12;;;;;;;;;;;19.80;99.20;;;;;;5031715;28;19925;-66
2023/05/15 12:43:39;;;;;;;;;;;20.00;99.90;;;;;;5031992;28;19960;-66
2023/05/15 12:46:04;;;;;;;;;;;20.10;99.30;;;;;;5035698;28;20329;-66
2023/05/15 12:48:32;;;;;;;;;;;20.30;99.20;;;;;;5031644;28;19921;-66
2023/05/15 12:51:05;;;;;;;;;;;20.40;98.70;;;;;;5031774;28;19921;-66
2023/05/15 12:53:33;;;;;;;;;;;20.20;99.80;;;;;;5030169;28;19975;-66
2023/05/15 12:55:59;;;;;;;;;;;20.40;98.00;;;;;;5030775;28;20354;-66
2023/05/15 12:58:25;;;;;;;;;;;20.40;97.70;;;;;;5031395;28;19921;-66
2023/05/15 13:00:51;;;;;;;;;;;20.50;99.00;;;;;;5032037;28;19975;-66
2023/05/15 13:03:18;;;;;;;;;;;20.80;97.20;;;;;;5029911;28;19928;-66
2023/05/15 13:05:44;;;;;;;;;;;20.80;98.90;;;;;;5034050;28;19977;-66
2023/05/15 13:08:13;;;;;;;;;;;20.80;98.90;;;;;;5030143;28;19957;-66
2023/05/15 13:10:39;;;;;;;;;;;20.90;99.90;;;;;;5027179;28;19925;-66
2023/05/15 13:13:04;;;;;;;;;;;20.60;99.90;;;;;;5039947;28;19932;-66
2023/05/15 13:15:30;;;;;;;;;;;20.20;98.90;;;;;;5030199;28;19921;-66
2023/05/15 13:18:02;;;;;;;;;;;20.10;99.40;;;;;;5031394;28;19921;-66
2023/05/15 13:20:28;;;;;;;;;;;19.90;99.90;;;;;;5028642;28;19928;-66
2023/05/15 13:22:54;;;;;;;;;;;19.90;99.60;;;;;;5030358;28;19959;-66
2023/05/15 13:25:19;;;;;;;;;;;20.20;99.50;;;;;;5039729;28;19925;-66
2023/05/15 13:27:46;;;;;;;;;;;20.20;99.50;;;;;;5023971;28;20215;-66
2023/05/15 13:30:12;;;;;;;;;;;20.10;98.60;;;;;;5042706;28;19921;-66
2023/05/15 13:32:37;;;;;;;;;;;20.30;99.60;;;;;;5028311;28;20016;-66
2023/05/15 13:35:03;;;;;;;;;;;20.30;99.30;;;;;;5028942;28;20020;-66
2023/05/15 13:37:29;;;;;;;;;;;20.50;99.80;;;;;;5032130;28;19921;-66
2023/05/15 13:39:54;;;;;;;;;;;20.70;98.40;;;;;;5027999;28;20650;-66
2023/05/15 13:42:20;;;;;;;;;;;20.80;98.20;;;;;;5029836;28;19928;-66
2023/05/15 13:44:45;;;;;;;;;;;20.80;98.40;;;;;;5034579;28;19925;-66
2023/05/15 13:47:11;;;;;;;;;;;20.70;99.30;;;;;;5030086;28;19928;-66
2023/05/15 13:49:36;;;;;;;;;;;20.90;98.00;;;;;;5036441;28;20054;-66
2023/05/15 13:52:03;;;;;;;;;;;21.10;97.10;;;;;;5044678;28;20310;-66
2023/05/15 13:54:29;;;;;;;;;;;21.10;97.80;;;;;;5033986;28;19976;-66
2023/05/15 13:56:54;;;;;;;;;;;21.10;96.80;;;;;;5033074;28;20390;-66
2023/05/15 13:59:20;;;;;;;;;;;20.80;95.70;;;;;;5038085;28;19928;-66
2023/05/15 14:01:46;;;;;;;;;;;20.50;95.10;;;;;;5040993;28;20461;-66
2023/05/15 14:04:11;;;;;;;;;;;19.90;94.90;;;;;;5027813;28;19921;-66
2023/05/15 14:06:37;;;;;;;;;;;19.70;93.60;;;;;;5027005;28;19929;-66
2023/05/15 14:09:03;;;;;;;;;;;19.50;93.50;;;;;;5034117;28;19931;-66
2023/05/15 14:11:29;;;;;;;;;;;19.20;94.20;;;;;;5044107;28;19959;-66